createdAt,value
2019-04-03T00:02:21.223Z,2.27
2019-04-03T00:04:53.010Z,1.90
2019-04-03T00:07:24.763Z,3.80
2019-04-03T00:09:56.384Z,3.93
2019-04-03T00:12:28.505Z,1.80
2019-04-03T00:15:00.277Z,2.67
2019-04-03T00:17:31.845Z,1.70
2019-04-03T00:20:03.650Z,2.97
2019-04-03T00:22:35.242Z,2.73
2019-04-03T00:25:09.304Z,3.17
2019-04-03T00:27:40.971Z,1.60
2019-04-03T00:30:14.065Z,3.00
2019-04-03T00:32:45.647Z,2.00
2019-04-03T00:35:17.555Z,3.00
2019-04-03T00:37:53.259Z,1.90
2019-04-03T00:40:24.978Z,3.80
2019-04-03T00:42:56.715Z,2.73
2019-04-03T00:45:28.374Z,2.60
2019-04-03T00:48:00.316Z,2.00
2019-04-03T00:50:32.314Z,2.40
2019-04-03T00:53:03.900Z,3.33
2019-04-03T00:55:35.506Z,1.80
2019-04-03T00:58:36.766Z,2.27
2019-04-03T01:01:12.187Z,3.90
2019-04-03T01:03:45.357Z,2.27
2019-04-03T01:06:17.306Z,2.70
2019-04-03T01:08:48.934Z,3.17
2019-04-03T01:11:20.959Z,2.97
2019-04-03T01:13:52.693Z,3.37
2019-04-03T01:16:24.899Z,2.60
2019-04-03T01:18:56.566Z,2.80
2019-04-03T01:21:28.368Z,2.20
2019-04-03T01:24:00.384Z,2.03
2019-04-03T01:26:31.992Z,2.93
2019-04-03T01:29:03.859Z,4.50
2019-04-03T01:31:35.382Z,3.30
2019-04-03T01:34:07.037Z,4.23
2019-04-03T01:36:38.787Z,3.40
2019-04-03T01:39:10.424Z,2.83
2019-04-03T01:41:42.483Z,4.27
2019-04-03T01:44:14.632Z,3.00
2019-04-03T01:46:46.241Z,3.90
2019-04-03T01:49:17.973Z,3.93
2019-04-03T01:56:52.395Z,3.17
2019-04-03T01:59:24.091Z,6.90
2019-04-03T02:01:55.730Z,4.70
2019-04-03T02:04:27.587Z,4.33
2019-04-03T02:06:59.312Z,4.83
2019-04-03T02:09:31.603Z,4.97
2019-04-03T02:12:03.729Z,5.07
2019-04-03T02:14:35.414Z,4.37
2019-04-03T02:17:07.025Z,4.27
2019-04-03T02:19:38.672Z,3.77
2019-04-03T02:22:11.194Z,3.33
2019-04-03T02:24:43.017Z,4.50
2019-04-03T02:27:14.699Z,3.70
2019-04-03T02:29:46.412Z,4.50
2019-04-03T02:32:18.222Z,3.30
2019-04-03T02:34:49.972Z,4.53
2019-04-03T02:37:22.060Z,3.63
2019-04-03T02:39:58.988Z,3.40
2019-04-03T02:42:28.122Z,3.00
2019-04-03T02:44:59.682Z,3.57
2019-04-03T02:47:33.611Z,3.63
2019-04-03T02:50:04.808Z,3.77
2019-04-03T02:52:37.406Z,4.83
2019-04-03T02:55:09.248Z,4.43
2019-04-03T02:57:40.971Z,4.67
2019-04-03T03:00:13.272Z,5.50
2019-04-03T03:02:46.110Z,3.73
2019-04-03T03:05:18.146Z,4.43
2019-04-03T03:07:49.759Z,5.33
2019-04-03T03:10:21.867Z,3.07
2019-04-03T03:12:54.168Z,5.30
2019-04-03T03:15:28.171Z,3.57
2019-04-03T03:18:00.494Z,4.17
2019-04-03T03:20:33.376Z,4.30
2019-04-03T03:23:05.398Z,4.43
2019-04-03T03:25:38.012Z,3.60
2019-04-03T03:28:13.239Z,5.13
2019-04-03T03:30:54.750Z,3.53
2019-04-03T03:33:29.756Z,5.27
2019-04-03T03:35:52.431Z,3.47
2019-04-03T03:38:28.155Z,2.87
2019-04-03T03:40:59.219Z,6.50
2019-04-03T03:43:31.247Z,3.67
2019-04-03T03:46:03.538Z,4.50
2019-04-03T03:48:35.109Z,4.17
2019-04-03T03:51:07.384Z,6.23
2019-04-03T03:53:43.881Z,5.03
2019-04-03T03:56:13.112Z,7.50
2019-04-03T03:58:46.011Z,13.03
2019-04-03T04:01:19.384Z,32.40
2019-04-03T04:03:51.507Z,26.03
2019-04-03T04:06:28.269Z,18.13
2019-04-03T04:08:57.136Z,9.80
2019-04-03T04:11:31.113Z,9.00
2019-04-03T04:14:03.948Z,4.50
2019-04-03T04:16:38.337Z,4.20
2019-04-03T04:19:10.129Z,2.97
2019-04-03T04:21:44.042Z,3.70
2019-04-03T04:24:15.544Z,3.60
2019-04-03T04:26:49.771Z,4.60
2019-04-03T04:29:20.717Z,3.47
2019-04-03T04:31:52.969Z,3.83
2019-04-03T04:34:24.699Z,4.63
2019-04-03T04:36:56.540Z,4.37
2019-04-03T04:39:29.009Z,5.87
2019-04-03T04:42:03.414Z,4.10
2019-04-03T04:44:34.838Z,4.73
2019-04-03T04:47:07.260Z,3.90
2019-04-03T04:49:38.887Z,4.00
2019-04-03T04:52:10.465Z,7.67
2019-04-03T04:54:42.986Z,6.20
2019-04-03T04:57:14.691Z,5.47
2019-04-03T04:59:46.496Z,3.10
2019-04-03T05:02:19.861Z,6.50
2019-04-03T05:04:52.134Z,3.30
2019-04-03T05:07:23.899Z,2.60
2019-04-03T05:09:55.502Z,3.73
2019-04-03T05:12:27.567Z,2.90
2019-04-03T05:14:59.321Z,6.60
2019-04-03T05:17:31.673Z,4.00
2019-04-03T05:20:03.694Z,2.33
2019-04-03T05:22:35.443Z,2.40
2019-04-03T05:25:07.460Z,3.40
2019-04-03T05:27:39.120Z,4.80
2019-04-03T05:30:11.029Z,4.70
2019-04-03T05:32:42.699Z,3.77
2019-04-03T05:35:15.545Z,2.37
2019-04-03T05:37:47.152Z,2.80
2019-04-03T05:40:19.029Z,3.33
2019-04-03T05:42:50.919Z,3.03
2019-04-03T05:45:22.521Z,3.87
2019-04-03T05:47:54.330Z,2.93
2019-04-03T05:50:27.185Z,3.23
2019-04-03T05:52:59.045Z,5.60
2019-04-03T05:55:30.800Z,2.80
2019-04-03T05:58:02.739Z,2.53
2019-04-03T06:00:34.406Z,3.50
2019-04-03T06:03:06.175Z,2.47
2019-04-03T06:05:38.498Z,3.30
2019-04-03T06:08:10.099Z,3.97
2019-04-03T06:10:41.834Z,2.77
2019-04-03T06:13:16.568Z,3.93
2019-04-03T06:15:47.480Z,3.80
2019-04-03T06:18:19.301Z,3.03
2019-04-03T06:20:51.993Z,2.37
2019-04-03T06:23:23.854Z,4.70
2019-04-03T06:25:56.067Z,2.53
2019-04-03T06:28:27.709Z,4.77
2019-04-03T06:30:59.351Z,2.97
2019-04-03T06:33:32.078Z,4.33
2019-04-03T06:36:04.596Z,3.40
2019-04-03T06:38:36.562Z,3.80
2019-04-03T06:41:09.155Z,4.17
2019-04-03T06:43:41.407Z,3.33
2019-04-03T06:46:13.050Z,4.93
2019-04-03T06:48:44.926Z,4.13
2019-04-03T06:51:17.857Z,4.20
2019-04-03T06:53:49.482Z,4.73
2019-04-03T06:56:21.382Z,5.00
2019-04-03T06:58:53.032Z,3.70
2019-04-03T07:01:25.126Z,5.67
2019-04-03T07:03:57.085Z,3.57
2019-04-03T07:06:29.010Z,4.00
2019-04-03T07:09:00.950Z,4.20
2019-04-03T07:11:33.432Z,4.03
2019-04-03T07:14:05.292Z,3.80
2019-04-03T07:16:38.588Z,3.47
2019-04-03T07:19:10.336Z,4.70
2019-04-03T07:21:42.169Z,5.37
2019-04-03T07:24:14.056Z,5.20
2019-04-03T07:26:45.689Z,4.37
2019-04-03T07:29:17.812Z,4.07
2019-04-03T07:31:49.464Z,4.33
2019-04-03T07:34:21.495Z,5.50
2019-04-03T07:36:53.104Z,4.03
2019-04-03T07:39:24.965Z,5.00
2019-04-03T07:41:57.275Z,4.07
2019-04-03T07:44:30.600Z,4.07
2019-04-03T07:47:04.026Z,6.87
2019-04-03T07:49:35.824Z,5.10
2019-04-03T07:52:07.435Z,4.90
2019-04-03T07:54:39.472Z,5.80
2019-04-03T07:57:11.122Z,6.57
2019-04-03T07:59:42.987Z,6.27
2019-04-03T08:02:15.174Z,6.40
2019-04-03T08:04:47.078Z,4.83
2019-04-03T08:07:18.706Z,3.70
2019-04-03T08:09:50.835Z,4.37
2019-04-03T08:12:22.982Z,4.50
2019-04-03T08:14:54.901Z,4.80
2019-04-03T08:17:26.641Z,6.23
2019-04-03T08:19:58.221Z,3.70
2019-04-03T08:22:32.732Z,6.50
2019-04-03T08:25:03.546Z,8.80
2019-04-03T08:27:35.747Z,5.20
2019-04-03T08:30:08.629Z,4.80
2019-04-03T08:32:40.780Z,3.63
2019-04-03T08:35:20.388Z,3.77
2019-04-03T08:37:46.284Z,6.13
2019-04-03T08:40:20.436Z,5.40
2019-04-03T08:42:51.351Z,6.20
2019-04-03T08:45:23.010Z,6.33
2019-04-03T08:47:54.701Z,5.27
2019-04-03T08:50:26.792Z,4.90
2019-04-03T08:52:59.983Z,6.17
2019-04-03T08:55:31.972Z,6.33
2019-04-03T08:58:03.612Z,5.00
2019-04-03T09:00:35.522Z,4.70
2019-04-03T09:03:07.728Z,4.70
2019-04-03T09:05:39.739Z,5.33
2019-04-03T09:08:11.389Z,5.93
2019-04-03T09:10:43.314Z,6.73
2019-04-03T09:13:18.508Z,5.13
2019-04-03T09:15:49.099Z,6.03
2019-04-03T09:18:20.810Z,6.10
2019-04-03T09:20:52.695Z,6.70
2019-04-03T09:23:25.103Z,6.27
2019-04-03T09:25:57.347Z,4.33
2019-04-03T09:28:29.176Z,4.40
2019-04-03T09:31:01.385Z,1.90
2019-04-03T09:33:33.383Z,1.87
2019-04-03T09:36:05.432Z,1.70
2019-04-03T09:38:37.517Z,1.60
2019-04-03T09:41:09.416Z,1.60
2019-04-03T09:43:41.084Z,2.07
2019-04-03T09:46:13.059Z,2.33
2019-04-03T09:48:45.092Z,2.23
2019-04-03T09:51:18.302Z,1.30
2019-04-03T09:53:50.364Z,1.50
2019-04-03T09:56:22.269Z,1.50
2019-04-03T09:58:56.307Z,1.70
2019-04-03T10:01:27.539Z,1.60
2019-04-03T10:03:59.185Z,1.63
2019-04-03T10:06:31.951Z,1.50
2019-04-03T10:09:05.518Z,1.70
2019-04-03T10:11:39.235Z,2.10
2019-04-03T10:14:12.032Z,1.30
2019-04-03T10:16:43.967Z,1.40
2019-04-03T10:19:16.037Z,1.43
2019-04-03T10:21:48.202Z,1.40
2019-04-03T10:24:20.127Z,1.63
2019-04-03T10:26:51.786Z,1.60
2019-04-03T10:29:23.685Z,1.30
2019-04-03T10:31:56.264Z,1.40
2019-04-03T10:34:28.131Z,3.00
2019-04-03T10:37:00.273Z,2.00
2019-04-03T10:39:32.269Z,1.40
2019-04-03T10:42:04.285Z,1.30
2019-04-03T10:44:36.255Z,1.90
2019-04-03T10:47:07.956Z,1.47
2019-04-03T10:49:39.859Z,1.60
2019-04-03T10:52:13.385Z,1.50
2019-04-03T10:54:45.056Z,1.30
2019-04-03T10:57:17.099Z,3.07
2019-04-03T10:59:53.547Z,1.33
2019-04-03T11:02:22.693Z,1.67
2019-04-03T11:04:55.769Z,4.30
2019-04-03T11:07:27.826Z,1.60
2019-04-03T11:10:01.129Z,1.57
2019-04-03T11:12:34.501Z,1.97
2019-04-03T11:15:10.540Z,1.70
2019-04-03T11:17:42.018Z,1.30
2019-04-03T11:20:16.279Z,1.30
2019-04-03T11:22:49.613Z,2.30
2019-04-03T11:25:21.670Z,1.40
2019-04-03T11:27:53.918Z,1.67
2019-04-03T11:30:26.460Z,1.60
2019-04-03T11:32:58.103Z,1.60
2019-04-03T11:35:30.261Z,1.87
2019-04-03T11:38:12.810Z,3.07
2019-04-03T11:40:38.479Z,3.10
2019-04-03T11:43:10.299Z,1.70
2019-04-03T11:45:43.058Z,1.40
2019-04-03T11:48:16.962Z,1.43
2019-04-03T11:50:48.231Z,1.53
2019-04-03T11:53:19.899Z,1.30
2019-04-03T11:55:51.589Z,2.00
2019-04-03T11:58:23.210Z,1.50
2019-04-03T12:00:55.908Z,1.53
2019-04-03T12:03:27.540Z,1.20
2019-04-03T12:05:59.275Z,1.30
2019-04-03T12:08:30.886Z,1.33
2019-04-03T12:11:05.380Z,1.40
2019-04-03T12:13:37.141Z,1.60
2019-04-03T12:16:09.739Z,1.30
2019-04-03T12:18:41.758Z,1.40
2019-04-03T12:21:14.661Z,1.20
2019-04-03T12:23:47.040Z,3.40
2019-04-03T12:26:20.726Z,1.30
2019-04-03T12:28:52.110Z,1.30
2019-04-03T12:31:25.248Z,2.43
2019-04-03T12:34:03.882Z,1.40
2019-04-03T12:36:30.783Z,1.20
2019-04-03T12:39:02.410Z,1.20
2019-04-03T12:41:36.340Z,1.30
2019-04-03T12:44:07.950Z,1.63
2019-04-03T12:46:41.308Z,1.77
2019-04-03T12:49:13.817Z,1.80
2019-04-03T12:51:45.529Z,1.50
2019-04-03T12:54:19.848Z,1.60
2019-04-03T12:56:50.784Z,1.60
2019-04-03T12:59:22.833Z,1.40
2019-04-03T13:01:55.040Z,1.37
2019-04-03T13:04:30.180Z,2.43
2019-04-03T13:07:01.127Z,1.37
2019-04-03T13:09:33.076Z,1.87
2019-04-03T13:12:05.459Z,1.40
2019-04-03T13:14:39.528Z,1.90
2019-04-03T13:17:13.502Z,1.50
2019-04-03T13:19:46.267Z,1.30
2019-04-03T13:22:18.810Z,3.50
2019-04-03T13:24:50.840Z,1.60
2019-04-03T13:27:22.481Z,5.50
2019-04-03T13:29:54.317Z,1.30
2019-04-03T13:32:25.982Z,1.83
2019-04-03T13:34:58.408Z,2.00
2019-04-03T13:37:30.751Z,1.30
2019-04-03T13:40:05.183Z,1.97
2019-04-03T13:42:36.578Z,1.53
2019-04-03T13:45:09.455Z,1.73
2019-04-03T13:47:42.971Z,1.50
2019-04-03T13:50:15.402Z,1.30
2019-04-03T13:52:49.352Z,1.50
2019-04-03T13:55:20.949Z,1.47
2019-04-03T13:57:52.736Z,2.40
2019-04-03T14:00:26.563Z,1.60
2019-04-03T14:02:58.325Z,1.50
2019-04-03T14:05:32.922Z,1.70
2019-04-03T14:08:06.518Z,1.30
2019-04-03T14:10:37.790Z,1.97
2019-04-03T14:13:12.212Z,1.40
2019-04-03T14:15:43.897Z,1.20
2019-04-03T14:18:15.651Z,1.90
2019-04-03T14:20:50.380Z,1.50
2019-04-03T14:23:21.439Z,1.80
2019-04-03T14:26:03.023Z,1.30
2019-04-03T14:28:26.693Z,1.37
2019-04-03T14:30:58.423Z,1.70
2019-04-03T14:33:41.668Z,1.60
2019-04-03T14:36:04.269Z,2.00
2019-04-03T14:38:35.891Z,1.80
2019-04-03T14:41:07.727Z,1.50
2019-04-03T14:43:39.479Z,1.23
2019-04-03T14:46:11.203Z,1.40
2019-04-03T14:48:42.872Z,1.40
2019-04-03T14:51:15.375Z,1.50
2019-04-03T14:53:47.110Z,2.30
2019-04-03T14:56:18.753Z,1.80
2019-04-03T14:58:50.498Z,1.50
2019-04-03T15:01:22.654Z,1.67
2019-04-03T15:03:54.794Z,1.57
2019-04-03T15:06:27.081Z,1.50
2019-04-03T15:08:59.049Z,2.53
2019-04-03T15:11:30.869Z,2.60
2019-04-03T15:14:03.120Z,3.27
2019-04-03T15:16:35.244Z,4.50
2019-04-03T15:19:07.187Z,2.10
2019-04-03T15:21:39.802Z,2.23
2019-04-03T15:24:12.293Z,2.63
2019-04-03T15:26:44.698Z,2.30
2019-04-03T15:29:16.847Z,2.33
2019-04-03T15:31:49.225Z,2.40
2019-04-03T15:34:21.082Z,1.83
2019-04-03T15:36:53.349Z,1.67
2019-04-03T15:39:26.270Z,1.40
2019-04-03T15:41:58.136Z,2.03
2019-04-03T15:44:29.815Z,2.53
2019-04-03T15:47:02.266Z,2.33
2019-04-03T15:49:34.169Z,1.60
2019-04-03T15:52:06.346Z,1.40
2019-04-03T15:54:39.071Z,1.87
2019-04-03T15:57:11.034Z,2.73
2019-04-03T15:59:43.527Z,3.37
2019-04-03T16:02:15.785Z,1.90
2019-04-03T16:04:47.848Z,1.80
2019-04-03T16:07:19.858Z,1.73
2019-04-03T16:09:52.279Z,2.33
2019-04-03T16:12:24.363Z,1.70
2019-04-03T16:14:56.618Z,2.37
2019-04-03T16:17:28.553Z,2.23
2019-04-03T16:20:00.837Z,1.67
2019-04-03T16:22:32.782Z,1.80
2019-04-03T16:25:05.913Z,1.87
2019-04-03T16:27:37.994Z,1.90
2019-04-03T16:30:14.257Z,1.93
2019-04-03T16:32:44.614Z,3.60
2019-04-03T16:35:17.488Z,1.70
2019-04-03T16:37:50.612Z,2.37
2019-04-03T16:40:23.625Z,2.33
2019-04-03T16:42:55.587Z,1.60
2019-04-03T16:45:27.311Z,2.37
2019-04-03T16:47:59.701Z,1.40
2019-04-03T16:50:31.639Z,1.47
2019-04-03T16:53:03.550Z,1.60
2019-04-03T16:55:38.113Z,1.67
2019-04-03T16:58:10.145Z,2.90
2019-04-03T17:00:42.798Z,2.40
2019-04-03T17:03:14.975Z,2.60
2019-04-03T17:05:47.384Z,1.50
2019-04-03T17:08:19.467Z,3.10
2019-04-03T17:10:52.780Z,1.33
2019-04-03T17:13:24.914Z,1.50
2019-04-03T17:15:57.338Z,2.67
2019-04-03T17:18:30.315Z,1.80
2019-04-03T17:21:02.039Z,2.13
2019-04-03T17:23:33.856Z,2.20
2019-04-03T17:26:09.301Z,2.30
2019-04-03T17:28:40.604Z,1.60
2019-04-03T17:31:12.878Z,2.20
2019-04-03T17:33:45.006Z,2.40
2019-04-03T17:36:19.166Z,1.70
2019-04-03T17:38:50.349Z,1.90
2019-04-03T17:41:22.061Z,1.90
2019-04-03T17:43:54.261Z,1.80
2019-04-03T17:46:26.262Z,2.87
2019-04-03T17:48:58.032Z,2.03
2019-04-03T17:51:29.747Z,2.30
2019-04-03T17:54:01.700Z,2.30
2019-04-03T17:56:35.579Z,2.70
2019-04-03T17:59:07.914Z,1.87
2019-04-03T18:01:39.725Z,2.17
2019-04-03T18:04:11.487Z,2.37
2019-04-03T18:06:43.426Z,2.40
2019-04-03T18:09:15.347Z,2.37
2019-04-03T18:11:47.630Z,2.20
2019-04-03T18:14:20.785Z,1.57
2019-04-03T18:16:52.512Z,2.23
2019-04-03T18:19:36.549Z,2.50
2019-04-03T18:21:57.827Z,1.63
2019-04-03T18:24:29.529Z,1.80
2019-04-03T18:27:02.508Z,2.00
2019-04-03T18:29:37.338Z,3.07
2019-04-03T18:32:09.292Z,1.80
2019-04-03T18:34:41.156Z,1.87
2019-04-03T18:37:13.295Z,2.00
2019-04-03T18:39:45.356Z,2.30
2019-04-03T18:42:18.613Z,1.57
2019-04-03T18:44:51.527Z,2.27
2019-04-03T18:47:23.397Z,2.00
2019-04-03T18:49:55.573Z,2.20
2019-04-03T18:52:27.999Z,4.10
2019-04-03T18:55:00.032Z,2.87
2019-04-03T18:57:31.826Z,1.97
2019-04-03T19:00:04.253Z,2.27
2019-04-03T19:02:36.112Z,2.23
2019-04-03T19:05:10.953Z,2.57
2019-04-03T19:07:45.726Z,2.40
2019-04-03T19:10:18.182Z,3.10
2019-04-03T19:12:50.354Z,4.33
2019-04-03T19:15:22.873Z,5.40
2019-04-03T19:18:00.350Z,2.70
2019-04-03T19:20:28.620Z,2.40
2019-04-03T19:23:02.810Z,2.07
2019-04-03T19:25:34.271Z,2.30
2019-04-03T19:28:06.116Z,2.93
2019-04-03T19:30:38.725Z,2.77
2019-04-03T19:33:13.643Z,3.33
2019-04-03T19:35:44.258Z,2.83
2019-04-03T19:38:15.971Z,2.47
2019-04-03T19:40:47.829Z,2.10
2019-04-03T19:43:19.654Z,2.23
2019-04-03T19:45:52.455Z,2.43
2019-04-03T19:48:25.643Z,2.60
2019-04-03T19:50:57.963Z,1.67
2019-04-03T19:53:29.727Z,1.83
2019-04-03T19:56:01.444Z,1.63
2019-04-03T19:58:33.355Z,4.07
2019-04-03T20:01:07.495Z,1.70
2019-04-03T20:03:39.564Z,1.83
2019-04-03T20:06:11.279Z,1.60
2019-04-03T20:08:42.997Z,2.27
2019-04-03T20:11:14.968Z,1.83
2019-04-03T20:13:47.383Z,1.40
2019-04-03T20:16:19.411Z,3.57
2019-04-03T20:18:51.906Z,5.83
2019-04-03T20:21:23.791Z,2.40
2019-04-03T20:23:55.503Z,5.40
2019-04-03T20:26:27.227Z,9.10
2019-04-03T20:29:01.966Z,6.57
2019-04-03T20:31:35.470Z,3.57
2019-04-03T20:34:06.909Z,2.60
2019-04-03T20:36:38.629Z,4.83
2019-04-03T20:39:10.978Z,2.27
2019-04-03T20:41:42.981Z,3.90
2019-04-03T20:44:17.466Z,3.53
2019-04-03T20:46:48.531Z,2.90
2019-04-03T20:49:21.157Z,2.60
2019-04-03T20:51:52.876Z,1.87
2019-04-03T20:54:24.630Z,2.57
2019-04-03T20:56:58.471Z,2.93
2019-04-03T20:59:30.869Z,2.57
2019-04-03T21:02:02.559Z,1.70
2019-04-03T21:04:34.855Z,2.00
2019-04-03T21:07:06.630Z,3.70
2019-04-03T21:09:38.514Z,2.57
2019-04-03T21:12:10.240Z,2.10
2019-04-03T21:14:42.326Z,2.17
2019-04-03T21:17:14.037Z,2.27
2019-04-03T21:19:46.747Z,2.23
2019-04-03T21:22:18.450Z,2.20
2019-04-03T21:24:50.494Z,1.77
2019-04-03T21:27:22.497Z,2.80
2019-04-03T21:29:54.203Z,2.40
2019-04-03T21:32:26.918Z,2.30
2019-04-03T21:35:03.101Z,2.00
2019-04-03T21:37:34.035Z,3.27
2019-04-03T21:40:06.239Z,3.07
2019-04-03T21:42:37.902Z,2.30
2019-04-03T21:45:09.855Z,1.90
2019-04-03T21:47:42.717Z,3.67
2019-04-03T21:50:19.044Z,2.63
2019-04-03T21:52:49.078Z,3.90
2019-04-03T21:55:21.098Z,3.67
2019-04-03T21:57:53.436Z,3.30
2019-04-03T22:01:21.015Z,3.10
2019-04-03T22:03:54.420Z,3.30
2019-04-03T22:06:27.580Z,2.73
2019-04-03T22:09:00.393Z,2.57
2019-04-03T22:11:34.860Z,3.10
2019-04-03T22:14:06.800Z,3.70
2019-04-03T22:16:38.682Z,3.60
2019-04-03T22:19:10.372Z,2.77
2019-04-03T22:21:42.665Z,2.67
2019-04-03T22:24:14.337Z,2.37
2019-04-03T22:26:46.314Z,2.43
2019-04-03T22:29:19.973Z,2.87
2019-04-03T22:31:53.695Z,3.80
2019-04-03T22:34:24.806Z,2.23
2019-04-03T22:36:57.752Z,2.60
2019-04-03T22:39:29.734Z,3.60
2019-04-03T22:42:01.412Z,3.27
2019-04-03T22:44:33.173Z,2.60
2019-04-03T22:47:04.838Z,2.30
2019-04-03T22:49:36.577Z,2.70
2019-04-03T22:52:08.884Z,3.60
2019-04-03T22:54:43.608Z,2.70
2019-04-03T22:57:15.064Z,3.13
2019-04-03T22:59:46.682Z,2.50
2019-04-03T23:02:18.558Z,3.20
2019-04-03T23:04:50.304Z,5.50
2019-04-03T23:07:21.963Z,2.80
2019-04-03T23:09:56.494Z,3.30
2019-04-03T23:12:28.020Z,3.00
2019-04-03T23:15:00.291Z,3.97
2019-04-03T23:17:31.999Z,3.30
2019-04-03T23:20:03.614Z,3.60
2019-04-03T23:22:35.361Z,3.10
2019-04-03T23:25:08.587Z,3.10
2019-04-03T23:27:40.275Z,3.60
2019-04-03T23:30:12.046Z,3.33
2019-04-03T23:32:45.739Z,4.20
2019-04-03T23:35:20.330Z,3.10
2019-04-03T23:37:50.688Z,3.60
2019-04-03T23:40:38.023Z,4.77
2019-04-03T23:43:27.386Z,3.67
2019-04-03T23:46:02.411Z,3.80
2019-04-03T23:48:34.187Z,4.10
2019-04-03T23:51:06.429Z,4.77
2019-04-03T23:53:38.153Z,4.23
2019-04-03T23:56:09.772Z,4.97
2019-04-03T23:58:43.608Z,4.53
